sensor_id;sensor_type;location;lat;lon;timestamp;temperature;humidity
546;DHT22;259;53.304;9.816;2022-08-19T00:00:12;23.20;97.60
546;DHT22;259;53.304;9.816;2022-08-19T00:02:40;23.20;97.50
546;DHT22;259;53.304;9.816;2022-08-19T00:05:07;23.20;97.50
546;DHT22;259;53.304;9.816;2022-08-19T00:07:33;23.20;97.50
546;DHT22;259;53.304;9.816;2022-08-19T00:09:59;23.20;97.50
546;DHT22;259;53.304;9.816;2022-08-19T00:12:24;23.20;97.50
546;DHT22;259;53.304;9.816;2022-08-19T00:14:50;23.20;97.50
546;DHT22;259;53.304;9.816;2022-08-19T00:17:16;23.20;97.50
546;DHT22;259;53.304;9.816;2022-08-19T00:19:41;23.10;97.40
546;DHT22;259;53.304;9.816;2022-08-19T00:22:07;23.20;97.50
546;DHT22;259;53.304;9.816;2022-08-19T00:24:34;23.10;97.40
546;DHT22;259;53.304;9.816;2022-08-19T00:27:01;23.10;97.40
546;DHT22;259;53.304;9.816;2022-08-19T00:29:27;23.10;97.50
546;DHT22;259;53.304;9.816;2022-08-19T00:31:54;23.10;97.50
546;DHT22;259;53.304;9.816;2022-08-19T00:34:21;23.10;97.50
546;DHT22;259;53.304;9.816;2022-08-19T00:36:47;23.10;97.50
546;DHT22;259;53.304;9.816;2022-08-19T00:39:13;23.10;97.50
546;DHT22;259;53.304;9.816;2022-08-19T00:41:40;23.10;97.50
546;DHT22;259;53.304;9.816;2022-08-19T00:46:36;23.00;97.50
546;DHT22;259;53.304;9.816;2022-08-19T00:49:09;23.00;97.50
546;DHT22;259;53.304;9.816;2022-08-19T00:51:37;23.00;97.50
546;DHT22;259;53.304;9.816;2022-08-19T00:54:03;23.00;97.50
546;DHT22;259;53.304;9.816;2022-08-19T00:56:30;23.00;97.50
546;DHT22;259;53.304;9.816;2022-08-19T00:58:58;23.00;97.60
546;DHT22;259;53.304;9.816;2022-08-19T01:01:24;22.90;97.60
546;DHT22;259;53.304;9.816;2022-08-19T01:03:50;22.90;97.60
546;DHT22;259;53.304;9.816;2022-08-19T01:06:16;22.90;97.60
546;DHT22;259;53.304;9.816;2022-08-19T01:08:41;22.90;97.60
546;DHT22;259;53.304;9.816;2022-08-19T01:11:08;22.90;97.70
546;DHT22;259;53.304;9.816;2022-08-19T01:13:34;22.90;97.70
546;DHT22;259;53.304;9.816;2022-08-19T01:16:09;22.90;97.70
546;DHT22;259;53.304;9.816;2022-08-19T01:18:39;22.90;97.60
546;DHT22;259;53.304;9.816;2022-08-19T01:21:09;22.90;97.70
546;DHT22;259;53.304;9.816;2022-08-19T01:23:36;22.90;97.70
546;DHT22;259;53.304;9.816;2022-08-19T01:26:21;22.90;97.70
546;DHT22;259;53.304;9.816;2022-08-19T01:28:49;22.80;97.70
546;DHT22;259;53.304;9.816;2022-08-19T01:31:20;22.80;97.70
546;DHT22;259;53.304;9.816;2022-08-19T01:33:47;22.80;97.70
546;DHT22;259;53.304;9.816;2022-08-19T01:36:22;22.80;97.70
546;DHT22;259;53.304;9.816;2022-08-19T01:38:48;22.80;98.10
546;DHT22;259;53.304;9.816;2022-08-19T01:41:14;22.80;97.70
546;DHT22;259;53.304;9.816;2022-08-19T01:43:42;22.80;97.70
546;DHT22;259;53.304;9.816;2022-08-19T01:46:07;22.80;97.80
546;DHT22;259;53.304;9.816;2022-08-19T01:48:35;22.80;97.80
546;DHT22;259;53.304;9.816;2022-08-19T01:51:02;22.70;97.70
546;DHT22;259;53.304;9.816;2022-08-19T01:53:28;22.70;97.70
546;DHT22;259;53.304;9.816;2022-08-19T01:55:53;22.70;97.80
546;DHT22;259;53.304;9.816;2022-08-19T01:58:22;22.70;97.80
546;DHT22;259;53.304;9.816;2022-08-19T02:00:49;22.70;97.80
546;DHT22;259;53.304;9.816;2022-08-19T02:03:15;22.70;97.80
546;DHT22;259;53.304;9.816;2022-08-19T02:05:42;22.70;97.90
546;DHT22;259;53.304;9.816;2022-08-19T02:08:08;22.60;97.90
546;DHT22;259;53.304;9.816;2022-08-19T02:10:37;22.60;97.90
546;DHT22;259;53.304;9.816;2022-08-19T02:13:03;22.60;97.90
546;DHT22;259;53.304;9.816;2022-08-19T02:15:28;22.60;98.00
546;DHT22;259;53.304;9.816;2022-08-19T02:17:54;22.60;98.00
546;DHT22;259;53.304;9.816;2022-08-19T02:20:20;22.60;98.00
546;DHT22;259;53.304;9.816;2022-08-19T02:22:45;22.60;98.00
546;DHT22;259;53.304;9.816;2022-08-19T02:25:13;22.60;98.00
546;DHT22;259;53.304;9.816;2022-08-19T02:27:39;22.60;98.10
546;DHT22;259;53.304;9.816;2022-08-19T02:30:07;22.60;98.10
546;DHT22;259;53.304;9.816;2022-08-19T02:32:33;22.60;98.10
546;DHT22;259;53.304;9.816;2022-08-19T02:34:59;22.50;98.10
546;DHT22;259;53.304;9.816;2022-08-19T02:37:25;22.50;98.10
546;DHT22;259;53.304;9.816;2022-08-19T02:40:09;22.50;98.10
546;DHT22;259;53.304;9.816;2022-08-19T02:42:35;22.50;98.10
546;DHT22;259;53.304;9.816;2022-08-19T02:45:01;22.50;98.10
546;DHT22;259;53.304;9.816;2022-08-19T02:47:26;22.50;98.10
546;DHT22;259;53.304;9.816;2022-08-19T02:49:52;22.50;98.10
546;DHT22;259;53.304;9.816;2022-08-19T02:52:18;22.40;98.10
546;DHT22;259;53.304;9.816;2022-08-19T02:54:43;22.40;98.10
546;DHT22;259;53.304;9.816;2022-08-19T02:57:09;22.40;98.10
546;DHT22;259;53.304;9.816;2022-08-19T02:59:35;22.40;98.10
546;DHT22;259;53.304;9.816;2022-08-19T03:02:00;22.40;98.20
546;DHT22;259;53.304;9.816;2022-08-19T03:04:26;22.40;98.20
546;DHT22;259;53.304;9.816;2022-08-19T03:06:52;22.30;98.20
546;DHT22;259;53.304;9.816;2022-08-19T03:09:19;22.40;98.30
546;DHT22;259;53.304;9.816;2022-08-19T03:11:45;22.30;98.30
546;DHT22;259;53.304;9.816;2022-08-19T03:14:11;22.30;98.20
546;DHT22;259;53.304;9.816;2022-08-19T03:16:46;22.30;98.20
546;DHT22;259;53.304;9.816;2022-08-19T03:19:13;22.30;98.20
546;DHT22;259;53.304;9.816;2022-08-19T03:21:39;22.30;98.20
546;DHT22;259;53.304;9.816;2022-08-19T03:24:07;22.30;98.30
546;DHT22;259;53.304;9.816;2022-08-19T03:26:34;22.30;98.70
546;DHT22;259;53.304;9.816;2022-08-19T03:29:04;22.30;98.40
546;DHT22;259;53.304;9.816;2022-08-19T03:31:29;22.30;98.50
546;DHT22;259;53.304;9.816;2022-08-19T03:33:56;22.30;98.50
546;DHT22;259;53.304;9.816;2022-08-19T03:36:25;22.30;98.40
546;DHT22;259;53.304;9.816;2022-08-19T03:38:53;22.30;98.40
546;DHT22;259;53.304;9.816;2022-08-19T03:41:25;22.30;98.40
546;DHT22;259;53.304;9.816;2022-08-19T03:43:52;22.30;98.40
546;DHT22;259;53.304;9.816;2022-08-19T03:46:22;22.30;98.40
546;DHT22;259;53.304;9.816;2022-08-19T03:48:51;22.20;98.50
546;DHT22;259;53.304;9.816;2022-08-19T03:51:22;22.20;98.60
546;DHT22;259;53.304;9.816;2022-08-19T03:53:48;22.20;98.70
546;DHT22;259;53.304;9.816;2022-08-19T03:56:14;22.10;98.70
546;DHT22;259;53.304;9.816;2022-08-19T03:58:41;22.10;99.10
546;DHT22;259;53.304;9.816;2022-08-19T04:01:12;22.10;98.80
546;DHT22;259;53.304;9.816;2022-08-19T04:03:38;22.10;98.80
546;DHT22;259;53.304;9.816;2022-08-19T04:06:15;22.10;98.80
546;DHT22;259;53.304;9.816;2022-08-19T04:08:43;22.10;98.80
546;DHT22;259;53.304;9.816;2022-08-19T04:11:14;22.10;99.10
546;DHT22;259;53.304;9.816;2022-08-19T04:13:40;22.10;98.80
546;DHT22;259;53.304;9.816;2022-08-19T04:16:07;22.10;99.00
546;DHT22;259;53.304;9.816;2022-08-19T04:18:36;22.00;98.90
546;DHT22;259;53.304;9.816;2022-08-19T04:21:02;22.00;98.90
546;DHT22;259;53.304;9.816;2022-08-19T04:23:28;22.00;98.80
546;DHT22;259;53.304;9.816;2022-08-19T04:25:54;22.00;98.90
546;DHT22;259;53.304;9.816;2022-08-19T04:28:20;22.10;98.90
546;DHT22;259;53.304;9.816;2022-08-19T04:30:50;22.00;98.90
546;DHT22;259;53.304;9.816;2022-08-19T04:33:18;22.00;99.00
546;DHT22;259;53.304;9.816;2022-08-19T04:35:46;22.00;99.00
546;DHT22;259;53.304;9.816;2022-08-19T04:38:12;22.00;99.00
546;DHT22;259;53.304;9.816;2022-08-19T04:40:43;22.00;99.10
546;DHT22;259;53.304;9.816;2022-08-19T04:43:27;22.00;99.10
546;DHT22;259;53.304;9.816;2022-08-19T04:45:53;21.90;99.10
546;DHT22;259;53.304;9.816;2022-08-19T04:48:20;22.00;99.10
546;DHT22;259;53.304;9.816;2022-08-19T04:50:55;22.00;99.00
546;DHT22;259;53.304;9.816;2022-08-19T04:53:31;22.00;99.00
546;DHT22;259;53.304;9.816;2022-08-19T04:55:57;22.00;99.00
546;DHT22;259;53.304;9.816;2022-08-19T04:58:25;22.00;99.00
546;DHT22;259;53.304;9.816;2022-08-19T05:00:51;22.00;99.00
546;DHT22;259;53.304;9.816;2022-08-19T05:03:17;22.00;99.00
546;DHT22;259;53.304;9.816;2022-08-19T05:05:44;22.00;98.90
546;DHT22;259;53.304;9.816;2022-08-19T05:08:12;22.00;98.90
546;DHT22;259;53.304;9.816;2022-08-19T05:10:39;22.00;98.90
546;DHT22;259;53.304;9.816;2022-08-19T05:13:06;22.00;98.90
546;DHT22;259;53.304;9.816;2022-08-19T05:15:31;22.00;98.90
546;DHT22;259;53.304;9.816;2022-08-19T05:17:57;21.90;98.90
546;DHT22;259;53.304;9.816;2022-08-19T05:20:41;22.00;99.00
546;DHT22;259;53.304;9.816;2022-08-19T05:23:25;21.90;98.90
546;DHT22;259;53.304;9.816;2022-08-19T05:25:51;21.90;98.90
546;DHT22;259;53.304;9.816;2022-08-19T05:28:18;21.90;98.90
546;DHT22;259;53.304;9.816;2022-08-19T05:30:44;21.90;98.90
546;DHT22;259;53.304;9.816;2022-08-19T05:33:10;21.90;99.00
546;DHT22;259;53.304;9.816;2022-08-19T05:35:38;21.90;99.00
546;DHT22;259;53.304;9.816;2022-08-19T05:38:05;21.90;99.00
546;DHT22;259;53.304;9.816;2022-08-19T05:40:34;21.90;99.00
546;DHT22;259;53.304;9.816;2022-08-19T05:43:02;21.90;99.00
546;DHT22;259;53.304;9.816;2022-08-19T05:45:27;21.80;99.00
546;DHT22;259;53.304;9.816;2022-08-19T05:47:53;21.80;99.00
546;DHT22;259;53.304;9.816;2022-08-19T05:50:19;21.80;98.90
546;DHT22;259;53.304;9.816;2022-08-19T05:52:45;21.80;99.00
546;DHT22;259;53.304;9.816;2022-08-19T05:55:10;21.90;99.10
546;DHT22;259;53.304;9.816;2022-08-19T05:57:36;21.80;99.00
546;DHT22;259;53.304;9.816;2022-08-19T06:00:05;21.80;99.00
546;DHT22;259;53.304;9.816;2022-08-19T06:02:35;21.80;99.00
546;DHT22;259;53.304;9.816;2022-08-19T06:05:02;21.80;99.00
546;DHT22;259;53.304;9.816;2022-08-19T06:07:28;21.80;99.00
546;DHT22;259;53.304;9.816;2022-08-19T06:09:54;21.80;99.10
546;DHT22;259;53.304;9.816;2022-08-19T06:12:20;21.80;99.10
546;DHT22;259;53.304;9.816;2022-08-19T06:14:56;21.80;99.10
546;DHT22;259;53.304;9.816;2022-08-19T06:17:21;21.80;99.30
546;DHT22;259;53.304;9.816;2022-08-19T06:19:50;21.80;99.40
546;DHT22;259;53.304;9.816;2022-08-19T06:22:15;21.90;99.40
546;DHT22;259;53.304;9.816;2022-08-19T06:24:41;21.90;99.40
546;DHT22;259;53.304;9.816;2022-08-19T06:27:07;21.90;99.40
546;DHT22;259;53.304;9.816;2022-08-19T06:29:33;21.90;99.40
546;DHT22;259;53.304;9.816;2022-08-19T06:32:00;21.90;99.40
546;DHT22;259;53.304;9.816;2022-08-19T06:34:27;21.90;99.40
546;DHT22;259;53.304;9.816;2022-08-19T06:36:54;21.90;99.40
546;DHT22;259;53.304;9.816;2022-08-19T06:39:25;21.90;99.40
546;DHT22;259;53.304;9.816;2022-08-19T06:41:53;21.90;99.40
546;DHT22;259;53.304;9.816;2022-08-19T06:44:21;21.90;99.40
546;DHT22;259;53.304;9.816;2022-08-19T06:46:48;21.90;99.50
546;DHT22;259;53.304;9.816;2022-08-19T06:49:17;21.90;99.50
546;DHT22;259;53.304;9.816;2022-08-19T06:51:45;21.90;99.50
546;DHT22;259;53.304;9.816;2022-08-19T06:54:13;21.90;99.50
546;DHT22;259;53.304;9.816;2022-08-19T06:56:38;21.90;99.50
546;DHT22;259;53.304;9.816;2022-08-19T06:59:11;21.90;99.60
546;DHT22;259;53.304;9.816;2022-08-19T07:01:39;21.90;99.60
546;DHT22;259;53.304;9.816;2022-08-19T07:04:08;21.90;99.70
546;DHT22;259;53.304;9.816;2022-08-19T07:06:35;21.90;99.70
546;DHT22;259;53.304;9.816;2022-08-19T07:09:02;21.90;99.60
546;DHT22;259;53.304;9.816;2022-08-19T07:11:28;21.90;99.60
546;DHT22;259;53.304;9.816;2022-08-19T07:13:54;21.90;99.60
546;DHT22;259;53.304;9.816;2022-08-19T07:16:20;21.90;99.60
546;DHT22;259;53.304;9.816;2022-08-19T07:18:48;22.00;99.60
546;DHT22;259;53.304;9.816;2022-08-19T07:21:24;22.00;99.50
546;DHT22;259;53.304;9.816;2022-08-19T07:23:53;22.00;99.50
546;DHT22;259;53.304;9.816;2022-08-19T07:26:27;22.00;99.50
546;DHT22;259;53.304;9.816;2022-08-19T07:28:54;22.00;99.80
546;DHT22;259;53.304;9.816;2022-08-19T07:31:23;22.00;99.90
546;DHT22;259;53.304;9.816;2022-08-19T07:33:50;22.00;99.60
546;DHT22;259;53.304;9.816;2022-08-19T07:36:19;22.00;99.70
546;DHT22;259;53.304;9.816;2022-08-19T07:38:47;22.00;99.90
546;DHT22;259;53.304;9.816;2022-08-19T07:41:18;22.00;99.70
546;DHT22;259;53.304;9.816;2022-08-19T07:43:44;22.00;99.70
546;DHT22;259;53.304;9.816;2022-08-19T07:46:11;21.90;99.70
546;DHT22;259;53.304;9.816;2022-08-19T07:48:40;21.90;99.80
546;DHT22;259;53.304;9.816;2022-08-19T07:51:07;21.90;99.80
546;DHT22;259;53.304;9.816;2022-08-19T07:53:33;21.90;99.80
546;DHT22;259;53.304;9.816;2022-08-19T07:55:59;21.90;99.90
546;DHT22;259;53.304;9.816;2022-08-19T07:58:32;21.90;99.90
546;DHT22;259;53.304;9.816;2022-08-19T08:00:58;21.90;99.90
546;DHT22;259;53.304;9.816;2022-08-19T08:03:24;21.90;99.90
546;DHT22;259;53.304;9.816;2022-08-19T08:06:10;21.80;99.90
546;DHT22;259;53.304;9.816;2022-08-19T08:08:54;21.90;99.90
546;DHT22;259;53.304;9.816;2022-08-19T08:11:44;21.80;99.90
546;DHT22;259;53.304;9.816;2022-08-19T08:14:22;21.90;99.90
546;DHT22;259;53.304;9.816;2022-08-19T08:16:49;21.80;99.90
546;DHT22;259;53.304;9.816;2022-08-19T08:19:17;21.80;99.90
546;DHT22;259;53.304;9.816;2022-08-19T08:21:43;21.80;99.90
546;DHT22;259;53.304;9.816;2022-08-19T08:24:10;21.80;99.90
546;DHT22;259;53.304;9.816;2022-08-19T08:26:36;21.70;99.90
546;DHT22;259;53.304;9.816;2022-08-19T08:29:02;21.70;99.90
546;DHT22;259;53.304;9.816;2022-08-19T08:31:27;21.70;99.90
546;DHT22;259;53.304;9.816;2022-08-19T08:33:53;21.70;99.90
546;DHT22;259;53.304;9.816;2022-08-19T08:36:20;21.80;99.90
546;DHT22;259;53.304;9.816;2022-08-19T08:38:45;21.80;99.90
546;DHT22;259;53.304;9.816;2022-08-19T08:43:54;21.80;99.90
546;DHT22;259;53.304;9.816;2022-08-19T08:46:34;21.80;99.90
546;DHT22;259;53.304;9.816;2022-08-19T08:51:46;21.70;99.90
546;DHT22;259;53.304;9.816;2022-08-19T08:54:15;21.70;99.90
546;DHT22;259;53.304;9.816;2022-08-19T08:56:44;21.70;99.90
546;DHT22;259;53.304;9.816;2022-08-19T08:59:21;21.70;99.90
546;DHT22;259;53.304;9.816;2022-08-19T09:01:48;21.60;99.90
546;DHT22;259;53.304;9.816;2022-08-19T09:04:14;21.60;99.90
546;DHT22;259;53.304;9.816;2022-08-19T09:06:46;21.60;99.90
546;DHT22;259;53.304;9.816;2022-08-19T09:09:14;21.60;99.90
546;DHT22;259;53.304;9.816;2022-08-19T09:14:48;21.60;99.90
546;DHT22;259;53.304;9.816;2022-08-19T09:17:15;21.60;99.90
546;DHT22;259;53.304;9.816;2022-08-19T09:19:53;21.60;99.90
546;DHT22;259;53.304;9.816;2022-08-19T09:22:20;21.60;99.90
546;DHT22;259;53.304;9.816;2022-08-19T09:24:48;21.60;99.90
546;DHT22;259;53.304;9.816;2022-08-19T09:27:14;21.60;99.90
546;DHT22;259;53.304;9.816;2022-08-19T09:29:40;21.60;99.90
546;DHT22;259;53.304;9.816;2022-08-19T09:32:05;21.60;99.90
546;DHT22;259;53.304;9.816;2022-08-19T09:34:32;21.70;99.90
546;DHT22;259;53.304;9.816;2022-08-19T09:36:58;21.70;99.90
546;DHT22;259;53.304;9.816;2022-08-19T09:39:25;21.80;99.90
546;DHT22;259;53.304;9.816;2022-08-19T09:41:51;21.70;99.90
546;DHT22;259;53.304;9.816;2022-08-19T09:44:17;21.70;99.90
546;DHT22;259;53.304;9.816;2022-08-19T09:46:43;21.70;99.90
546;DHT22;259;53.304;9.816;2022-08-19T09:49:09;21.80;99.90
546;DHT22;259;53.304;9.816;2022-08-19T09:51:34;21.80;99.90
546;DHT22;259;53.304;9.816;2022-08-19T09:54:02;21.80;99.90
546;DHT22;259;53.304;9.816;2022-08-19T09:56:29;21.80;99.90
546;DHT22;259;53.304;9.816;2022-08-19T09:58:57;21.80;99.90
546;DHT22;259;53.304;9.816;2022-08-19T10:01:25;21.80;99.90
546;DHT22;259;53.304;9.816;2022-08-19T10:03:53;21.80;99.90
546;DHT22;259;53.304;9.816;2022-08-19T10:06:21;21.80;99.90
546;DHT22;259;53.304;9.816;2022-08-19T10:08:48;21.80;99.90
546;DHT22;259;53.304;9.816;2022-08-19T10:11:14;21.80;99.90
546;DHT22;259;53.304;9.816;2022-08-19T10:13:41;21.80;99.90
546;DHT22;259;53.304;9.816;2022-08-19T10:16:10;21.80;99.90
546;DHT22;259;53.304;9.816;2022-08-19T10:18:36;21.80;99.90
546;DHT22;259;53.304;9.816;2022-08-19T10:21:08;21.70;99.90
546;DHT22;259;53.304;9.816;2022-08-19T10:23:39;21.70;99.90
546;DHT22;259;53.304;9.816;2022-08-19T10:26:06;21.70;99.90
546;DHT22;259;53.304;9.816;2022-08-19T10:28:34;21.70;99.90
546;DHT22;259;53.304;9.816;2022-08-19T10:31:04;21.80;99.90
546;DHT22;259;53.304;9.816;2022-08-19T10:33:31;21.80;99.90
546;DHT22;259;53.304;9.816;2022-08-19T10:36:06;21.80;99.90
546;DHT22;259;53.304;9.816;2022-08-19T10:38:32;21.80;99.90
546;DHT22;259;53.304;9.816;2022-08-19T10:41:13;21.80;99.90
546;DHT22;259;53.304;9.816;2022-08-19T10:43:40;21.80;99.90
546;DHT22;259;53.304;9.816;2022-08-19T10:46:08;21.80;99.90
546;DHT22;259;53.304;9.816;2022-08-19T10:48:34;21.80;99.90
546;DHT22;259;53.304;9.816;2022-08-19T10:51:00;21.80;99.90
546;DHT22;259;53.304;9.816;2022-08-19T10:53:45;21.80;99.90
546;DHT22;259;53.304;9.816;2022-08-19T10:56:10;21.80;99.90
546;DHT22;259;53.304;9.816;2022-08-19T10:58:54;21.80;99.90
546;DHT22;259;53.304;9.816;2022-08-19T11:01:21;21.80;99.90
546;DHT22;259;53.304;9.816;2022-08-19T11:03:47;21.90;99.90
546;DHT22;259;53.304;9.816;2022-08-19T11:06:12;21.90;99.90
546;DHT22;259;53.304;9.816;2022-08-19T11:08:38;21.90;99.90
546;DHT22;259;53.304;9.816;2022-08-19T11:11:06;22.00;99.90
546;DHT22;259;53.304;9.816;2022-08-19T11:13:34;22.00;99.90
546;DHT22;259;53.304;9.816;2022-08-19T11:16:14;22.00;99.90
546;DHT22;259;53.304;9.816;2022-08-19T11:18:45;22.00;99.90
546;DHT22;259;53.304;9.816;2022-08-19T11:21:23;22.00;99.90
546;DHT22;259;53.304;9.816;2022-08-19T11:23:52;22.00;99.90
546;DHT22;259;53.304;9.816;2022-08-19T11:26:20;22.00;99.90
546;DHT22;259;53.304;9.816;2022-08-19T11:28:46;22.00;99.90
546;DHT22;259;53.304;9.816;2022-08-19T11:31:13;22.00;99.90
546;DHT22;259;53.304;9.816;2022-08-19T11:33:39;22.00;99.90
546;DHT22;259;53.304;9.816;2022-08-19T11:36:05;22.00;99.90
546;DHT22;259;53.304;9.816;2022-08-19T11:38:30;22.00;99.90
546;DHT22;259;53.304;9.816;2022-08-19T11:40:57;22.10;99.90
546;DHT22;259;53.304;9.816;2022-08-19T11:43:23;22.10;99.90
546;DHT22;259;53.304;9.816;2022-08-19T11:45:52;22.10;99.90
546;DHT22;259;53.304;9.816;2022-08-19T11:48:18;22.10;99.90
546;DHT22;259;53.304;9.816;2022-08-19T11:50:48;22.10;99.90
546;DHT22;259;53.304;9.816;2022-08-19T11:53:14;22.10;99.90
546;DHT22;259;53.304;9.816;2022-08-19T11:55:40;22.00;99.90
546;DHT22;259;53.304;9.816;2022-08-19T11:58:08;22.00;99.90
546;DHT22;259;53.304;9.816;2022-08-19T12:00:34;22.00;99.90
546;DHT22;259;53.304;9.816;2022-08-19T12:03:02;22.00;99.90
546;DHT22;259;53.304;9.816;2022-08-19T12:05:28;22.10;99.90
546;DHT22;259;53.304;9.816;2022-08-19T12:07:53;22.10;99.90
546;DHT22;259;53.304;9.816;2022-08-19T12:10:20;22.10;99.90
546;DHT22;259;53.304;9.816;2022-08-19T12:12:46;22.10;99.90
546;DHT22;259;53.304;9.816;2022-08-19T12:15:12;22.10;99.90
546;DHT22;259;53.304;9.816;2022-08-19T12:17:39;22.10;99.90
546;DHT22;259;53.304;9.816;2022-08-19T12:20:11;22.20;99.90
546;DHT22;259;53.304;9.816;2022-08-19T12:22:38;22.20;99.90
546;DHT22;259;53.304;9.816;2022-08-19T12:25:07;22.20;99.90
546;DHT22;259;53.304;9.816;2022-08-19T12:27:33;22.20;99.90
546;DHT22;259;53.304;9.816;2022-08-19T12:29:58;22.20;99.90
546;DHT22;259;53.304;9.816;2022-08-19T12:32:26;22.20;99.90
546;DHT22;259;53.304;9.816;2022-08-19T12:34:52;22.20;99.90
546;DHT22;259;53.304;9.816;2022-08-19T12:37:17;22.20;99.90
546;DHT22;259;53.304;9.816;2022-08-19T12:39:43;22.20;99.90
546;DHT22;259;53.304;9.816;2022-08-19T12:42:11;22.30;99.90
546;DHT22;259;53.304;9.816;2022-08-19T12:44:38;22.30;99.90
546;DHT22;259;53.304;9.816;2022-08-19T12:47:05;22.30;99.90
546;DHT22;259;53.304;9.816;2022-08-19T12:49:32;22.30;99.90
546;DHT22;259;53.304;9.816;2022-08-19T12:52:04;22.30;99.90
546;DHT22;259;53.304;9.816;2022-08-19T12:54:30;22.30;99.90
546;DHT22;259;53.304;9.816;2022-08-19T12:56:56;22.40;99.90
546;DHT22;259;53.304;9.816;2022-08-19T12:59:22;22.40;99.90
546;DHT22;259;53.304;9.816;2022-08-19T13:01:48;22.40;99.90
546;DHT22;259;53.304;9.816;2022-08-19T13:04:13;22.40;99.90
546;DHT22;259;53.304;9.816;2022-08-19T13:06:39;22.40;99.90
546;DHT22;259;53.304;9.816;2022-08-19T13:09:05;22.40;99.90
546;DHT22;259;53.304;9.816;2022-08-19T13:11:30;22.40;99.90
546;DHT22;259;53.304;9.816;2022-08-19T13:14:00;22.40;99.90
546;DHT22;259;53.304;9.816;2022-08-19T13:16:26;22.40;99.90
546;DHT22;259;53.304;9.816;2022-08-19T13:18:54;22.40;99.90
546;DHT22;259;53.304;9.816;2022-08-19T13:21:23;22.40;99.90
546;DHT22;259;53.304;9.816;2022-08-19T13:23:50;22.50;99.90
546;DHT22;259;53.304;9.816;2022-08-19T13:26:16;22.50;99.90
546;DHT22;259;53.304;9.816;2022-08-19T13:28:42;22.50;99.90
546;DHT22;259;53.304;9.816;2022-08-19T13:31:29;22.50;99.90
546;DHT22;259;53.304;9.816;2022-08-19T13:34:15;22.60;99.90
546;DHT22;259;53.304;9.816;2022-08-19T13:36:41;22.60;99.90
546;DHT22;259;53.304;9.816;2022-08-19T13:39:07;22.60;99.90
546;DHT22;259;53.304;9.816;2022-08-19T13:41:34;22.60;99.90
546;DHT22;259;53.304;9.816;2022-08-19T13:44:00;22.70;99.90
546;DHT22;259;53.304;9.816;2022-08-19T13:46:27;22.70;99.90
546;DHT22;259;53.304;9.816;2022-08-19T13:48:55;22.80;99.90
546;DHT22;259;53.304;9.816;2022-08-19T13:51:21;22.80;99.90
546;DHT22;259;53.304;9.816;2022-08-19T13:53:47;22.90;99.90
546;DHT22;259;53.304;9.816;2022-08-19T13:56:15;22.90;99.90
546;DHT22;259;53.304;9.816;2022-08-19T13:58:42;22.90;99.90
546;DHT22;259;53.304;9.816;2022-08-19T14:01:09;22.90;99.90
546;DHT22;259;53.304;9.816;2022-08-19T14:03:35;22.90;99.90
546;DHT22;259;53.304;9.816;2022-08-19T14:06:02;22.90;99.90
546;DHT22;259;53.304;9.816;2022-08-19T14:08:27;22.90;99.90
546;DHT22;259;53.304;9.816;2022-08-19T14:10:54;22.90;99.90
546;DHT22;259;53.304;9.816;2022-08-19T14:13:22;22.90;99.90
546;DHT22;259;53.304;9.816;2022-08-19T14:15:48;23.00;99.90
546;DHT22;259;53.304;9.816;2022-08-19T14:18:15;23.10;99.90
546;DHT22;259;53.304;9.816;2022-08-19T14:20:42;23.10;99.90
546;DHT22;259;53.304;9.816;2022-08-19T14:23:07;23.10;99.90
546;DHT22;259;53.304;9.816;2022-08-19T14:25:33;23.20;99.90
546;DHT22;259;53.304;9.816;2022-08-19T14:27:59;23.20;99.90
546;DHT22;259;53.304;9.816;2022-08-19T14:30:28;23.30;99.90
546;DHT22;259;53.304;9.816;2022-08-19T14:32:58;23.30;99.90
546;DHT22;259;53.304;9.816;2022-08-19T14:35:24;23.40;99.90
546;DHT22;259;53.304;9.816;2022-08-19T14:37:51;23.40;99.90
546;DHT22;259;53.304;9.816;2022-08-19T14:40:22;23.50;99.90
546;DHT22;259;53.304;9.816;2022-08-19T14:42:57;23.50;99.90
546;DHT22;259;53.304;9.816;2022-08-19T14:45:26;23.50;99.90
546;DHT22;259;53.304;9.816;2022-08-19T14:47:52;23.60;99.90
546;DHT22;259;53.304;9.816;2022-08-19T14:50:18;23.60;99.90
546;DHT22;259;53.304;9.816;2022-08-19T14:52:46;23.70;99.90
546;DHT22;259;53.304;9.816;2022-08-19T14:55:14;23.70;99.90
546;DHT22;259;53.304;9.816;2022-08-19T14:57:41;23.80;99.90
546;DHT22;259;53.304;9.816;2022-08-19T15:00:08;23.90;99.90
546;DHT22;259;53.304;9.816;2022-08-19T15:02:38;23.90;99.90
546;DHT22;259;53.304;9.816;2022-08-19T15:05:04;23.90;99.90
546;DHT22;259;53.304;9.816;2022-08-19T15:07:30;24.00;99.90
546;DHT22;259;53.304;9.816;2022-08-19T15:09:56;24.00;99.90
546;DHT22;259;53.304;9.816;2022-08-19T15:12:21;24.10;99.90
546;DHT22;259;53.304;9.816;2022-08-19T15:14:47;24.10;99.90
546;DHT22;259;53.304;9.816;2022-08-19T15:17:15;24.10;99.90
546;DHT22;259;53.304;9.816;2022-08-19T15:19:41;24.10;99.90
546;DHT22;259;53.304;9.816;2022-08-19T15:22:07;24.20;99.90
546;DHT22;259;53.304;9.816;2022-08-19T15:24:33;24.20;99.90
546;DHT22;259;53.304;9.816;2022-08-19T15:27:01;24.20;99.90
546;DHT22;259;53.304;9.816;2022-08-19T15:29:26;24.40;99.90
546;DHT22;259;53.304;9.816;2022-08-19T15:31:53;24.40;99.90
546;DHT22;259;53.304;9.816;2022-08-19T15:34:22;24.40;99.70
546;DHT22;259;53.304;9.816;2022-08-19T15:36:48;24.40;99.60
546;DHT22;259;53.304;9.816;2022-08-19T15:39:14;24.40;99.60
546;DHT22;259;53.304;9.816;2022-08-19T15:41:41;24.40;99.50
546;DHT22;259;53.304;9.816;2022-08-19T15:44:13;24.40;99.60
546;DHT22;259;53.304;9.816;2022-08-19T15:46:42;24.40;99.50
546;DHT22;259;53.304;9.816;2022-08-19T15:49:09;24.40;99.50
546;DHT22;259;53.304;9.816;2022-08-19T15:51:36;24.40;99.30
546;DHT22;259;53.304;9.816;2022-08-19T15:54:06;24.50;99.10
546;DHT22;259;53.304;9.816;2022-08-19T15:56:32;24.40;98.80
546;DHT22;259;53.304;9.816;2022-08-19T15:59:16;24.50;98.90
546;DHT22;259;53.304;9.816;2022-08-19T16:02:01;24.40;98.90
546;DHT22;259;53.304;9.816;2022-08-19T16:04:45;24.40;98.90
546;DHT22;259;53.304;9.816;2022-08-19T16:07:29;24.40;98.40
546;DHT22;259;53.304;9.816;2022-08-19T16:09:54;24.30;99.10
546;DHT22;259;53.304;9.816;2022-08-19T16:12:20;24.30;99.20
546;DHT22;259;53.304;9.816;2022-08-19T16:14:46;24.20;99.20
546;DHT22;259;53.304;9.816;2022-08-19T16:17:13;24.20;99.00
546;DHT22;259;53.304;9.816;2022-08-19T16:19:39;24.20;99.40
546;DHT22;259;53.304;9.816;2022-08-19T16:22:05;24.20;99.40
546;DHT22;259;53.304;9.816;2022-08-19T16:24:31;24.20;99.30
546;DHT22;259;53.304;9.816;2022-08-19T16:26:58;24.20;99.30
546;DHT22;259;53.304;9.816;2022-08-19T16:29:26;24.20;99.30
546;DHT22;259;53.304;9.816;2022-08-19T16:31:52;24.20;98.60
546;DHT22;259;53.304;9.816;2022-08-19T16:34:19;24.20;99.30
546;DHT22;259;53.304;9.816;2022-08-19T16:36:45;24.20;99.40
546;DHT22;259;53.304;9.816;2022-08-19T16:39:12;24.20;99.30
546;DHT22;259;53.304;9.816;2022-08-19T16:41:39;24.20;99.30
546;DHT22;259;53.304;9.816;2022-08-19T16:44:07;24.20;99.40
546;DHT22;259;53.304;9.816;2022-08-19T16:46:33;24.10;99.30
546;DHT22;259;53.304;9.816;2022-08-19T16:48:59;24.10;99.20